Time;durP1;ratioP1;P1;durP2;ratioP2;P2;SDS_P1;SDS_P2;PMS_P1;PMS_P2;Temp;Humidity;BMP_temperature;BMP_pressure;BME280_temperature;BME280_humidity;BME280_pressure;Samples;Min_cycle;Max_cycle;Signal;HPM_P1;HPM_P2
2023/02/10 00:01:53;;;;;;;1.60;1.00;;;1.40;87.30;;;;;;4808959;29;20039;-76
2023/02/10 00:04:30;;;;;;;1.35;0.80;;;1.40;87.30;;;;;;4821888;29;20060;-76
2023/02/10 00:07:01;;;;;;;1.98;1.10;;;1.40;87.20;;;;;;4803810;29;20078;-75
2023/02/10 00:09:36;;;;;;;;;;;1.50;87.20;;;;;;4824394;29;20057;-75
2023/02/10 00:12:16;;;;;;;1.17;0.73;;;1.50;87.10;;;;;;4825051;29;20064;-75
2023/02/10 00:14:48;;;;;;;0.85;0.77;;;1.50;87.00;;;;;;4782933;29;20093;-75
2023/02/10 00:17:27;;;;;;;1.25;0.80;;;1.50;87.00;;;;;;4721822;30;20053;-75
2023/02/10 00:29:57;;;;;;;1.15;0.70;;;1.50;86.90;;;;;;4713937;30;20084;-75
2023/02/10 00:32:27;;;;;;;0.90;0.70;;;1.60;86.90;;;;;;4714112;30;20049;-73
2023/02/10 00:35:05;;;;;;;1.83;0.70;;;1.60;87.00;;;;;;4700739;30;20059;-74
2023/02/10 00:37:37;;;;;;;1.35;0.95;;;1.70;87.00;;;;;;4737387;30;20052;-74
2023/02/10 00:40:47;;;;;;;1.73;0.80;;;1.60;87.00;;;;;;4765978;29;20449;-75
2023/02/10 00:43:13;;;;;;;1.17;0.80;;;1.60;87.10;;;;;;4785062;30;20043;-75
2023/02/10 00:46:01;;;;;;;1.45;0.90;;;1.60;87.10;;;;;;4749095;30;20147;-75
2023/02/10 00:48:38;;;;;;;1.55;1.00;;;1.60;87.20;;;;;;4780420;29;20047;-75
2023/02/10 00:51:28;;;;;;;1.52;0.85;;;1.60;87.20;;;;;;4794157;29;20055;-75
2023/02/10 00:54:13;;;;;;;1.25;0.90;;;1.50;87.20;;;;;;4779224;29;20056;-74
2023/02/10 00:56:46;;;;;;;1.15;0.80;;;1.50;87.30;;;;;;4759230;30;20186;-73
2023/02/10 00:59:45;;;;;;;1.77;0.98;;;1.60;87.40;;;;;;4749000;30;20040;-73
2023/02/10 01:02:10;;;;;;;1.27;0.90;;;1.60;87.40;;;;;;4762411;30;20055;-73
2023/02/10 01:04:37;;;;;;;2.42;1.20;;;1.60;87.40;;;;;;4703000;30;20056;-73
2023/02/10 01:07:03;;;;;;;1.20;0.90;;;1.60;87.40;;;;;;4751378;29;20139;-73
2023/02/10 01:09:28;;;;;;;2.10;1.40;;;1.60;87.40;;;;;;4802985;29;20109;-73
2023/02/10 01:11:54;;;;;;;1.67;1.05;;;1.50;87.40;;;;;;4863525;29;20041;-73
2023/02/10 01:14:19;;;;;;;2.45;1.13;;;1.60;87.60;;;;;;4872157;29;20050;-74
2023/02/10 01:16:45;;;;;;;2.53;1.23;;;1.60;87.60;;;;;;4886283;29;20373;-74
2023/02/10 01:19:11;;;;;;;2.03;1.23;;;1.60;88.30;;;;;;4903695;29;20119;-73
2023/02/10 01:21:38;;;;;;;2.47;1.30;;;1.60;87.70;;;;;;4945390;29;20142;-73
2023/02/10 01:24:05;;;;;;;2.38;1.20;;;1.50;87.70;;;;;;4961102;28;20083;-73
2023/02/10 01:26:31;;;;;;;2.83;1.52;;;1.60;87.80;;;;;;4995592;28;20113;-73
2023/02/10 01:28:56;;;;;;;1.80;1.20;;;1.60;87.80;;;;;;5092001;28;20401;-73
2023/02/10 01:31:22;;;;;;;2.00;1.15;;;1.60;87.80;;;;;;5040505;28;20070;-73
2023/02/10 01:33:51;;;;;;;1.95;1.05;;;1.70;87.80;;;;;;5091934;28;20123;-73
2023/02/10 01:36:19;;;;;;;2.22;1.23;;;1.60;87.80;;;;;;5055148;28;20040;-73
2023/02/10 01:38:45;;;;;;;1.45;1.08;;;1.50;87.70;;;;;;5073840;28;20044;-73
2023/02/10 01:41:13;;;;;;;1.75;0.90;;;1.70;87.90;;;;;;5057214;28;20132;-73
2023/02/10 01:44:01;;;;;;;1.20;0.93;;;1.60;87.80;;;;;;5092387;28;20047;-74
2023/02/10 01:46:29;;;;;;;1.65;0.90;;;1.60;88.00;;;;;;5057104;28;20036;-74
2023/02/10 01:48:58;;;;;;;1.83;1.13;;;1.60;88.00;;;;;;5057459;28;20051;-74
2023/02/10 01:51:31;;;;;;;2.08;1.10;;;1.60;88.00;;;;;;5059283;28;20071;-74
2023/02/10 01:53:57;;;;;;;2.70;1.20;;;1.60;88.10;;;;;;5060618;28;20040;-74
2023/02/10 01:56:23;;;;;;;2.17;1.35;;;1.60;88.10;;;;;;5060972;28;20398;-74
2023/02/10 01:58:49;;;;;;;1.83;1.15;;;1.60;88.10;;;;;;5077396;28;20065;-74
2023/02/10 02:01:15;;;;;;;2.45;1.23;;;1.50;88.10;;;;;;5077461;28;20398;-75
2023/02/10 02:03:41;;;;;;;1.67;1.02;;;1.60;88.10;;;;;;5060651;28;20040;-75
2023/02/10 02:06:07;;;;;;;1.88;1.08;;;1.60;88.20;;;;;;5036320;28;20044;-73
2023/02/10 02:08:33;;;;;;;1.70;1.13;;;1.50;88.80;;;;;;5043007;28;20078;-73
2023/02/10 02:11:37;;;;;;;1.85;1.20;;;1.50;88.20;;;;;;5095199;28;20048;-74
2023/02/10 02:14:27;;;;;;;1.35;0.90;;;1.50;88.30;;;;;;5076617;28;20130;-73
2023/02/10 02:17:18;;;;;;;1.42;1.10;;;1.50;88.40;;;;;;5077050;28;20474;-73
2023/02/10 02:23:17;;;;;;;1.00;0.85;;;1.50;88.40;;;;;;5079972;28;20051;-74
2023/02/10 02:26:12;;;;;;;1.55;0.93;;;1.40;88.40;;;;;;5061679;28;20552;-74
2023/02/10 02:29:08;;;;;;;1.30;1.05;;;1.50;88.50;;;;;;5094803;28;20040;-74
2023/02/10 02:31:52;;;;;;;1.00;0.77;;;1.40;88.50;;;;;;5094780;28;20055;-74
2023/02/10 02:34:29;;;;;;;1.00;0.68;;;1.40;88.60;;;;;;5095151;28;20105;-75
2023/02/10 02:37:02;;;;;;;1.08;0.77;;;1.40;88.60;;;;;;5077907;28;20527;-74
2023/02/10 02:39:28;;;;;;;1.75;1.00;;;1.40;88.70;;;;;;5077129;28;20043;-74
2023/02/10 02:42:19;;;;;;;1.33;0.80;;;1.40;88.70;;;;;;5076681;28;20043;-74
2023/02/10 02:44:50;;;;;;;1.63;0.85;;;1.40;88.80;;;;;;5094390;28;20051;-74
2023/02/10 02:47:40;;;;;;;1.77;0.90;;;1.30;88.80;;;;;;5095149;28;20070;-74
2023/02/10 02:50:20;;;;;;;1.63;1.02;;;1.30;88.90;;;;;;5059716;28;20043;-74
2023/02/10 02:53:08;;;;;;;1.35;0.80;;;1.30;88.90;;;;;;5094250;28;20523;-74
2023/02/10 02:56:04;;;;;;;1.45;1.00;;;1.30;88.90;;;;;;5094530;28;20378;-74
2023/02/10 02:58:44;;;;;;;2.10;0.90;;;1.30;88.90;;;;;;5094397;28;20535;-74
2023/02/10 03:01:16;;;;;;;1.27;0.90;;;1.30;88.90;;;;;;5061064;28;20426;-74
2023/02/10 03:03:42;;;;;;;1.30;0.80;;;1.20;88.90;;;;;;5075545;28;20040;-74
2023/02/10 03:06:08;;;;;;;1.38;1.00;;;1.30;89.00;;;;;;5094210;28;20055;-74
2023/02/10 03:08:36;;;;;;;0.88;0.80;;;1.20;89.00;;;;;;5094658;28;20036;-74
2023/02/10 03:11:02;;;;;;;1.48;0.90;;;1.20;89.10;;;;;;5094590;28;20044;-74
2023/02/10 03:13:28;;;;;;;0.68;0.63;;;1.20;89.20;;;;;;5076134;28;20149;-74
2023/02/10 03:15:53;;;;;;;1.13;0.70;;;1.10;89.10;;;;;;5094402;28;20481;-74
2023/02/10 03:18:19;;;;;;;0.98;0.88;;;1.10;89.20;;;;;;5075903;28;20036;-74
2023/02/10 03:20:45;;;;;;;1.25;0.90;;;1.10;89.30;;;;;;5075751;28;20048;-74
2023/02/10 03:23:10;;;;;;;1.55;0.77;;;1.00;89.30;;;;;;5075724;28;20071;-74
2023/02/10 03:25:37;;;;;;;1.90;1.13;;;1.00;89.50;;;;;;5093815;28;20047;-74
2023/02/10 03:28:05;;;;;;;1.17;0.80;;;0.90;89.40;;;;;;5094285;28;20032;-73
2023/02/10 03:30:31;;;;;;;1.40;1.00;;;0.90;89.50;;;;;;5075742;28;20046;-74
2023/02/10 03:32:56;;;;;;;1.38;0.90;;;0.90;89.60;;;;;;5094068;28;20482;-74
2023/02/10 03:35:23;;;;;;;2.17;1.10;;;0.80;89.60;;;;;;5075472;28;20048;-74
2023/02/10 03:37:49;;;;;;;1.85;1.00;;;0.80;89.60;;;;;;5093656;28;20131;-74
2023/02/10 03:40:15;;;;;;;1.80;1.10;;;0.80;89.70;;;;;;5073673;28;20045;-74
2023/02/10 03:42:40;;;;;;;1.85;0.90;;;0.80;89.80;;;;;;5093930;28;20046;-74
2023/02/10 03:45:06;;;;;;;1.20;1.00;;;0.80;89.80;;;;;;5074405;28;20045;-74
2023/02/10 03:47:32;;;;;;;1.10;0.95;;;0.70;89.80;;;;;;5075998;28;20044;-73
2023/02/10 03:49:58;;;;;;;1.08;0.93;;;0.70;89.80;;;;;;5093999;28;20051;-74
2023/02/10 03:52:23;;;;;;;1.65;0.80;;;0.60;89.80;;;;;;5075332;28;20497;-73
2023/02/10 03:54:49;;;;;;;1.27;0.80;;;0.50;89.80;;;;;;5093874;28;20131;-74
2023/02/10 03:57:15;;;;;;;0.95;0.85;;;0.50;89.80;;;;;;5093837;28;20123;-74
2023/02/10 03:59:40;;;;;;;1.45;1.10;;;0.60;89.90;;;;;;5093831;28;20085;-74
2023/02/10 04:02:06;;;;;;;1.33;0.90;;;0.50;89.90;;;;;;5075282;28;20047;-74
2023/02/10 04:04:32;;;;;;;1.98;0.98;;;0.50;90.00;;;;;;5093325;28;20040;-74
2023/02/10 04:06:57;;;;;;;1.05;0.88;;;0.50;90.00;;;;;;5057962;28;20036;-74
2023/02/10 04:09:23;;;;;;;2.00;1.08;;;0.40;90.00;;;;;;5075094;28;20044;-74
2023/02/10 04:11:49;;;;;;;2.08;1.10;;;0.40;90.00;;;;;;5093237;28;20089;-74
2023/02/10 04:14:14;;;;;;;1.15;0.80;;;0.40;90.00;;;;;;5074523;28;20106;-74
2023/02/10 04:16:40;;;;;;;1.42;0.88;;;0.30;90.00;;;;;;5093727;28;20036;-74
2023/02/10 04:19:06;;;;;;;1.70;1.00;;;0.30;90.00;;;;;;5093414;28;20075;-74
2023/02/10 04:21:31;;;;;;;1.42;0.88;;;0.30;90.00;;;;;;5075084;28;20040;-74
2023/02/10 04:23:57;;;;;;;1.33;0.90;;;0.30;90.00;;;;;;5074978;28;20143;-74
2023/02/10 04:26:23;;;;;;;1.42;0.80;;;0.30;90.00;;;;;;5075505;28;20553;-74
2023/02/10 04:28:48;;;;;;;2.85;1.10;;;0.20;90.00;;;;;;5072921;28;20048;-74
2023/02/10 04:31:14;;;;;;;1.60;0.90;;;0.20;90.00;;;;;;5075144;28;20397;-74
2023/02/10 04:33:40;;;;;;;2.17;1.10;;;0.20;90.00;;;;;;5092812;28;20044;-74
2023/02/10 04:36:07;;;;;;;1.63;0.85;;;0.20;90.00;;;;;;5073115;28;20037;-74
2023/02/10 04:38:32;;;;;;;1.58;0.85;;;0.20;90.00;;;;;;5058491;28;20063;-74
2023/02/10 04:40:58;;;;;;;1.90;0.93;;;0.10;90.00;;;;;;5075090;28;20466;-74
2023/02/10 04:43:24;;;;;;;1.25;0.93;;;0.10;90.00;;;;;;5092718;28;20481;-74
2023/02/10 04:45:49;;;;;;;1.02;0.65;;;0.10;90.00;;;;;;5092834;28;20044;-74
2023/02/10 04:48:15;;;;;;;0.80;0.80;;;0.20;90.00;;;;;;5073870;28;20141;-74
2023/02/10 04:50:41;;;;;;;1.67;0.90;;;0.20;90.00;;;;;;5074513;28;20489;-74
2023/02/10 04:53:08;;;;;;;1.92;0.98;;;0.10;90.00;;;;;;5056518;28;20130;-74
2023/02/10 04:55:33;;;;;;;1.23;0.90;;;0.10;90.00;;;;;;5092297;28;20048;-74
2023/02/10 04:57:59;;;;;;;1.75;0.90;;;0.10;90.00;;;;;;5073392;28;20064;-74
2023/02/10 05:00:26;;;;;;;2.10;1.00;;;0.20;90.00;;;;;;5074342;28;20036;-74
2023/02/10 05:02:51;;;;;;;2.50;1.23;;;0.10;90.00;;;;;;5058251;28;20050;-75
2023/02/10 05:05:17;;;;;;;1.52;1.00;;;0.10;90.00;;;;;;5075138;28;20131;-74
2023/02/10 05:07:43;;;;;;;1.73;1.10;;;0.20;90.00;;;;;;5093153;28;20044;-74
2023/02/10 05:10:09;;;;;;;2.92;1.35;;;0.10;90.00;;;;;;5074962;28;20048;-74
2023/02/10 05:12:35;;;;;;;1.13;0.95;;;0.10;90.00;;;;;;5074504;28;20123;-74
2023/02/10 05:15:01;;;;;;;2.25;1.20;;;0.00;90.00;;;;;;5092420;28;20140;-74
2023/02/10 05:17:26;;;;;;;1.85;1.05;;;0.00;90.00;;;;;;5073376;28;20048;-74
2023/02/10 05:19:52;;;;;;;1.50;0.95;;;0.00;90.00;;;;;;5074391;28;20040;-75
2023/02/10 05:22:17;;;;;;;1.63;0.90;;;0.00;90.00;;;;;;5074243;28;20501;-74
2023/02/10 05:24:43;;;;;;;1.75;1.00;;;-0.10;90.00;;;;;;5032064;28;20140;-74
2023/02/10 05:27:09;;;;;;;2.83;1.20;;;-0.10;90.00;;;;;;5088557;28;20043;-74
2023/02/10 05:29:34;;;;;;;2.13;1.20;;;-0.10;90.00;;;;;;5092384;28;20607;-75
2023/02/10 05:32:00;;;;;;;2.08;1.10;;;-0.10;90.00;;;;;;5092819;28;20047;-75
2023/02/10 05:34:26;;;;;;;2.33;1.00;;;-0.10;90.00;;;;;;5074085;28;20058;-74
2023/02/10 05:36:52;;;;;;;2.22;1.10;;;-0.10;90.00;;;;;;5073967;28;20051;-74
2023/02/10 05:39:25;;;;;;;2.42;1.10;;;-0.10;90.10;;;;;;5074196;28;20040;-74
2023/02/10 05:41:53;;;;;;;2.30;1.15;;;-0.20;90.10;;;;;;5074247;28;20040;-74
2023/02/10 05:44:19;;;;;;;2.45;1.25;;;-0.20;90.20;;;;;;5073968;28;20036;-74
2023/02/10 05:46:45;;;;;;;1.70;1.00;;;-0.20;90.10;;;;;;5092277;28;20040;-74
2023/02/10 05:49:10;;;;;;;1.95;1.13;;;-0.20;90.10;;;;;;5057920;28;20059;-74
2023/02/10 05:51:36;;;;;;;2.17;1.00;;;-0.20;90.10;;;;;;5074597;28;20351;-74
2023/02/10 05:54:01;;;;;;;1.70;1.10;;;-0.20;90.10;;;;;;5073931;28;20040;-74
2023/02/10 05:56:27;;;;;;;1.10;0.85;;;-0.20;90.10;;;;;;5074116;28;20032;-74
2023/02/10 05:58:53;;;;;;;1.58;1.08;;;-0.30;90.00;;;;;;5078179;28;20078;-73
2023/02/10 06:01:18;;;;;;;2.45;1.30;;;-0.30;90.10;;;;;;5080007;28;20052;-73
2023/02/10 06:03:44;;;;;;;1.75;1.00;;;-0.30;90.10;;;;;;5099335;28;20043;-73
2023/02/10 06:06:09;;;;;;;2.17;1.10;;;-0.30;90.10;;;;;;5099046;28;20036;-74
2023/02/10 06:08:35;;;;;;;1.20;0.82;;;-0.30;90.10;;;;;;5099664;28;20067;-74
2023/02/10 06:11:01;;;;;;;2.10;1.10;;;-0.30;90.10;;;;;;5099891;28;20460;-73
2023/02/10 06:13:26;;;;;;;2.42;1.00;;;-0.30;90.10;;;;;;5100913;28;20119;-73
2023/02/10 06:15:52;;;;;;;1.52;0.90;;;-0.40;90.10;;;;;;5081316;28;20033;-73
2023/02/10 06:18:18;;;;;;;2.72;1.10;;;-0.40;90.10;;;;;;5047073;28;20040;-73
2023/02/10 06:20:46;;;;;;;1.73;0.98;;;-0.40;90.20;;;;;;5099484;28;20020;-75
2023/02/10 06:23:12;;;;;;;1.25;0.98;;;-0.40;90.10;;;;;;5104449;28;20040;-74
2023/02/10 06:25:38;;;;;;;1.38;0.90;;;-0.40;90.10;;;;;;5095831;28;20040;-73
2023/02/10 06:28:04;;;;;;;2.40;1.13;;;-0.40;90.20;;;;;;5099857;28;20520;-74
2023/02/10 06:30:29;;;;;;;2.22;1.10;;;-0.40;90.10;;;;;;5091451;28;20366;-74
2023/02/10 06:32:55;;;;;;;1.60;1.00;;;-0.30;90.10;;;;;;5072778;28;20562;-74
2023/02/10 06:35:20;;;;;;;2.15;1.15;;;-0.30;90.10;;;;;;5071764;28;20045;-74
2023/02/10 06:37:46;;;;;;;1.98;1.00;;;-0.40;90.00;;;;;;5074409;28;20173;-77
2023/02/10 06:40:12;;;;;;;2.25;0.90;;;-0.40;90.00;;;;;;5094729;28;20048;-74
2023/02/10 06:42:38;;;;;;;1.92;1.20;;;-0.40;90.10;;;;;;5094783;28;20043;-74
2023/02/10 06:45:04;;;;;;;2.15;1.17;;;-0.40;90.10;;;;;;5094917;28;20036;-74
2023/02/10 06:47:30;;;;;;;1.52;0.85;;;-0.40;90.10;;;;;;5076783;28;20421;-74
2023/02/10 06:49:55;;;;;;;1.48;0.90;;;-0.40;90.10;;;;;;5095182;28;20032;-74
2023/02/10 06:52:24;;;;;;;1.83;0.90;;;-0.40;90.10;;;;;;5077224;28;20032;-74
2023/02/10 06:54:50;;;;;;;2.10;1.20;;;-0.40;90.10;;;;;;5094917;28;20047;-74
2023/02/10 06:57:15;;;;;;;2.63;1.27;;;-0.30;90.10;;;;;;5077309;28;20032;-74
2023/02/10 06:59:41;;;;;;;2.28;1.30;;;-0.30;90.10;;;;;;5077264;28;20474;-75
2023/02/10 07:02:11;;;;;;;3.53;1.50;;;-0.20;90.10;;;;;;5094645;28;20379;-74
2023/02/10 07:04:37;;;;;;;2.70;1.17;;;-0.20;90.10;;;;;;5094614;28;20094;-74
2023/02/10 07:07:03;;;;;;;2.55;1.40;;;-0.20;90.00;;;;;;5076881;28;20047;-74
2023/02/10 07:09:28;;;;;;;2.00;1.23;;;-0.20;90.00;;;;;;5094424;28;20036;-75
2023/02/10 07:11:54;;;;;;;3.80;1.67;;;-0.10;90.00;;;;;;5094305;28;20115;-75
2023/02/10 07:14:20;;;;;;;3.25;1.80;;;-0.10;90.00;;;;;;5076223;28;20085;-74
2023/02/10 07:16:47;;;;;;;4.60;2.15;;;0.10;89.80;;;;;;5094235;28;20493;-75
2023/02/10 07:19:12;;;;;;;5.03;2.30;;;0.10;89.60;;;;;;5059520;28;20040;-75
2023/02/10 07:21:38;;;;;;;5.50;2.15;;;0.10;89.40;;;;;;5064458;28;20041;-74
2023/02/10 07:24:05;;;;;;;5.60;2.55;;;0.30;89.40;;;;;;5094024;28;20051;-74
2023/02/10 07:26:30;;;;;;;4.78;2.42;;;0.30;89.30;;;;;;5094096;28;20044;-73
2023/02/10 07:28:56;;;;;;;5.18;2.50;;;0.30;89.20;;;;;;5094031;28;20426;-74
2023/02/10 07:31:22;;;;;;;4.93;2.45;;;0.40;89.20;;;;;;5074272;28;20046;-74
2023/02/10 07:33:47;;;;;;;4.65;2.38;;;0.40;89.20;;;;;;5075846;28;20134;-74
2023/02/10 07:36:13;;;;;;;5.80;2.60;;;0.40;89.20;;;;;;5074777;28;20040;-74
2023/02/10 07:38:38;;;;;;;5.70;2.70;;;0.50;89.30;;;;;;5075942;28;20393;-74
2023/02/10 07:41:07;;;;;;;5.63;2.75;;;0.50;89.20;;;;;;5075930;28;20040;-74
2023/02/10 07:43:33;;;;;;;5.93;3.05;;;0.50;89.20;;;;;;5059163;28;20867;-74
2023/02/10 07:45:58;;;;;;;5.28;2.63;;;0.50;89.20;;;;;;5094103;28;20129;-74
2023/02/10 07:48:24;;;;;;;5.22;2.55;;;0.60;89.20;;;;;;5057163;28;20044;-74
2023/02/10 07:50:51;;;;;;;6.75;3.17;;;0.60;89.30;;;;;;5075523;28;20055;-74
2023/02/10 07:53:18;;;;;;;4.93;2.55;;;0.60;89.30;;;;;;5093619;28;20104;-74
2023/02/10 07:55:44;;;;;;;6.30;2.88;;;0.70;89.30;;;;;;5058913;28;20048;-74
2023/02/10 07:58:10;;;;;;;7.15;2.80;;;0.70;89.30;;;;;;5075546;28;20055;-74
2023/02/10 08:00:36;;;;;;;6.18;3.00;;;0.70;89.30;;;;;;5094004;28;20040;-73
2023/02/10 08:03:02;;;;;;;4.72;2.40;;;0.70;89.30;;;;;;5093745;28;20039;-74
2023/02/10 08:05:28;;;;;;;4.93;2.28;;;0.70;89.30;;;;;;5075765;28;20051;-74
2023/02/10 08:07:54;;;;;;;4.25;2.20;;;0.80;89.40;;;;;;5075213;28;20040;-73
2023/02/10 08:10:20;;;;;;;3.78;2.10;;;0.80;89.40;;;;;;5075520;28;20473;-74
2023/02/10 08:12:46;;;;;;;4.85;2.30;;;0.80;89.40;;;;;;5075254;28;20102;-74
2023/02/10 08:15:12;;;;;;;4.97;2.60;;;0.80;89.40;;;;;;5093367;28;20042;-75
2023/02/10 08:17:38;;;;;;;5.57;2.75;;;0.90;89.50;;;;;;5075555;28;20123;-74
2023/02/10 08:20:05;;;;;;;4.22;2.08;;;0.90;89.60;;;;;;5093637;28;20047;-74
2023/02/10 08:22:31;;;;;;;4.65;2.47;;;0.90;89.70;;;;;;5075105;28;20551;-74
2023/02/10 08:24:56;;;;;;;6.22;2.70;;;0.90;89.70;;;;;;5075935;28;20040;-74
2023/02/10 08:27:22;;;;;;;4.65;2.63;;;0.90;89.70;;;;;;5075260;28;20051;-74
2023/02/10 08:29:48;;;;;;;5.25;2.60;;;0.90;89.70;;;;;;5075710;28;20055;-74
2023/02/10 08:32:18;;;;;;;6.03;2.97;;;0.90;89.80;;;;;;5093765;28;20044;-74
2023/02/10 08:34:45;;;;;;;5.00;2.72;;;1.00;89.80;;;;;;5059029;28;20050;-74
2023/02/10 08:37:11;;;;;;;6.85;3.17;;;0.90;89.80;;;;;;5093662;28;20074;-74
2023/02/10 08:39:36;;;;;;;5.88;2.65;;;1.00;89.90;;;;;;5093574;28;20079;-74
2023/02/10 08:42:03;;;;;;;7.32;2.80;;;1.00;89.90;;;;;;5093065;28;20040;-75
2023/02/10 08:44:29;;;;;;;5.88;2.92;;;1.00;89.90;;;;;;5092856;28;20070;-75
2023/02/10 08:46:54;;;;;;;5.78;3.03;;;1.10;90.00;;;;;;5092977;28;20086;-74
2023/02/10 08:49:22;;;;;;;5.60;2.63;;;1.10;90.00;;;;;;5074693;28;20386;-75
2023/02/10 08:51:47;;;;;;;5.95;2.90;;;1.10;89.90;;;;;;5093040;28;20044;-74
2023/02/10 08:54:13;;;;;;;5.25;2.47;;;1.20;90.00;;;;;;5074784;28;20043;-74
2023/02/10 08:56:39;;;;;;;7.03;3.22;;;1.20;89.90;;;;;;5092854;28;20036;-74
2023/02/10 08:59:05;;;;;;;6.97;3.03;;;1.20;89.90;;;;;;5075435;28;20036;-74
2023/02/10 09:01:31;;;;;;;6.00;2.80;;;1.20;89.90;;;;;;5057641;28;20040;-74
2023/02/10 09:03:56;;;;;;;5.90;2.75;;;1.30;90.00;;;;;;5092752;28;20560;-74
2023/02/10 09:06:30;;;;;;;8.02;3.25;;;1.30;89.90;;;;;;5092769;28;20043;-74
2023/02/10 09:08:56;;;;;;;8.65;3.80;;;1.40;89.80;;;;;;5075245;28;20092;-74
2023/02/10 09:11:23;;;;;;;6.15;2.88;;;1.40;89.90;;;;;;5093144;28;20040;-74
2023/02/10 09:13:50;;;;;;;6.82;3.08;;;1.50;89.80;;;;;;5092799;28;20046;-74
2023/02/10 09:16:15;;;;;;;7.57;2.92;;;1.50;89.80;;;;;;5092906;28;20036;-74
2023/02/10 09:18:41;;;;;;;6.22;2.90;;;1.60;89.80;;;;;;5074931;28;20063;-75
2023/02/10 09:21:08;;;;;;;5.13;2.55;;;1.70;89.90;;;;;;5074289;28;20485;-75
2023/02/10 09:23:34;;;;;;;7.57;3.42;;;1.70;89.90;;;;;;5074540;28;20040;-75
2023/02/10 09:26:00;;;;;;;6.05;2.80;;;1.80;89.80;;;;;;5092256;28;20040;-75
2023/02/10 09:28:27;;;;;;;7.18;3.38;;;1.80;90.10;;;;;;5057369;28;20043;-75
2023/02/10 09:30:52;;;;;;;7.93;3.63;;;1.90;89.80;;;;;;5092442;28;20051;-74
2023/02/10 09:33:18;;;;;;;7.10;3.45;;;1.90;89.80;;;;;;5057730;28;20048;-74
2023/02/10 09:35:44;;;;;;;6.25;2.90;;;2.00;89.80;;;;;;5092260;28;20123;-74
2023/02/10 09:38:12;;;;;;;7.78;2.92;;;2.00;89.80;;;;;;5092421;28;20035;-75
2023/02/10 09:41:00;;;;;;;5.32;2.92;;;2.10;89.90;;;;;;5074517;28;20036;-75
2023/02/10 09:43:53;;;;;;;7.13;3.53;;;2.20;89.80;;;;;;5059855;28;20400;-75
2023/02/10 09:46:41;;;;;;;7.32;3.05;;;2.20;89.80;;;;;;5091996;28;20040;-74
2023/02/10 09:49:35;;;;;;;6.60;3.17;;;2.20;89.80;;;;;;5092141;28;20392;-74
2023/02/10 09:52:34;;;;;;;6.40;3.42;;;2.30;89.80;;;;;;5076966;28;20074;-75
2023/02/10 09:55:00;;;;;;;7.05;3.08;;;2.40;89.80;;;;;;5073582;28;20451;-75
2023/02/10 09:57:41;;;;;;;6.43;2.80;;;2.50;89.70;;;;;;5074050;28;20040;-74
2023/02/10 10:00:23;;;;;;;7.47;3.47;;;2.60;89.60;;;;;;5074601;28;20138;-74
2023/02/10 10:02:54;;;;;;;7.03;3.10;;;2.60;89.60;;;;;;5075208;28;20036;-75
2023/02/10 10:05:35;;;;;;;8.73;3.85;;;2.70;89.60;;;;;;5092381;28;20052;-75
2023/02/10 10:08:04;;;;;;;9.87;3.93;;;2.80;89.70;;;;;;5073511;28;20040;-75
2023/02/10 10:10:35;;;;;;;8.43;3.67;;;3.00;89.50;;;;;;5073784;28;20040;-75
2023/02/10 10:13:01;;;;;;;7.53;3.80;;;3.20;89.40;;;;;;5093333;28;20048;-74
2023/02/10 10:15:38;;;;;;;8.25;3.90;;;3.20;89.10;;;;;;5095662;28;20042;-74
2023/02/10 10:18:17;;;;;;;6.97;3.45;;;3.30;89.00;;;;;;5077190;28;20512;-75
2023/02/10 10:20:53;;;;;;;10.13;3.65;;;3.30;89.10;;;;;;5095589;28;20071;-75
2023/02/10 10:23:35;;;;;;;9.10;3.95;;;3.30;89.10;;;;;;5077201;28;20080;-74
2023/02/10 10:26:32;;;;;;;7.60;3.65;;;3.30;89.30;;;;;;5060324;28;20047;-75
2023/02/10 10:29:17;;;;;;;9.85;3.92;;;3.40;89.40;;;;;;5064678;28;20519;-74
2023/02/10 10:31:45;;;;;;;8.98;4.25;;;3.50;89.40;;;;;;5078675;28;20051;-75
2023/02/10 10:34:16;;;;;;;9.18;4.00;;;3.60;89.30;;;;;;5077126;28;20040;-74
2023/02/10 10:36:46;;;;;;;8.95;3.65;;;3.70;89.20;;;;;;5095118;28;20032;-74
2023/02/10 10:39:22;;;;;;;9.13;3.80;;;3.80;89.10;;;;;;5095494;28;20040;-74
2023/02/10 10:41:49;;;;;;;9.70;4.22;;;3.80;89.10;;;;;;5094996;28;20040;-74
2023/02/10 10:44:17;;;;;;;7.72;3.67;;;3.80;89.20;;;;;;5060254;28;20047;-74
2023/02/10 10:46:49;;;;;;;7.43;3.83;;;3.90;89.30;;;;;;5075758;28;20048;-74
2023/02/10 10:49:15;;;;;;;8.77;3.88;;;3.90;89.30;;;;;;5094957;28;20047;-74
2023/02/10 10:51:42;;;;;;;8.73;4.30;;;3.90;89.30;;;;;;5094873;28;20048;-74
2023/02/10 10:54:14;;;;;;;8.98;4.15;;;4.00;89.30;;;;;;5060472;28;20489;-74
2023/02/10 10:56:49;;;;;;;9.23;4.60;;;4.10;89.30;;;;;;5077123;28;20085;-74
2023/02/10 10:59:19;;;;;;;10.60;4.60;;;4.10;89.30;;;;;;5094849;28;20102;-74
2023/02/10 11:01:47;;;;;;;9.95;4.55;;;4.20;89.30;;;;;;5094640;28;20051;-74
2023/02/10 11:04:17;;;;;;;10.23;4.60;;;4.30;89.30;;;;;;5094706;28;20051;-74
2023/02/10 11:06:49;;;;;;;8.35;4.00;;;4.40;89.20;;;;;;5095150;28;20032;-74
2023/02/10 11:09:36;;;;;;;9.40;4.25;;;4.50;89.10;;;;;;5094539;28;20044;-74
2023/02/10 11:12:11;;;;;;;9.85;4.18;;;4.60;89.10;;;;;;5061222;28;20043;-74
2023/02/10 11:14:40;;;;;;;8.13;3.80;;;4.70;88.90;;;;;;5076246;28;20050;-75
2023/02/10 11:17:32;;;;;;;10.50;4.40;;;4.80;88.80;;;;;;5076948;28;20032;-74
2023/02/10 11:20:01;;;;;;;12.63;4.60;;;4.90;89.40;;;;;;5094666;28;20063;-74
2023/02/10 11:22:28;;;;;;;7.93;3.65;;;5.00;88.60;;;;;;5059655;28;20075;-74
2023/02/10 11:24:56;;;;;;;9.77;4.18;;;5.00;88.50;;;;;;5093835;28;20051;-74
2023/02/10 11:27:23;;;;;;;10.05;4.22;;;5.10;88.50;;;;;;5076290;28;20047;-74
2023/02/10 11:29:52;;;;;;;11.30;4.72;;;5.20;88.40;;;;;;5094325;28;20040;-74
2023/02/10 11:32:22;;;;;;;13.85;5.03;;;5.30;88.20;;;;;;5076131;28;20117;-73
2023/02/10 11:34:50;;;;;;;10.38;5.00;;;5.40;88.10;;;;;;5092422;28;20070;-74
2023/02/10 11:37:38;;;;;;;10.85;4.90;;;5.40;88.00;;;;;;5076109;28;20130;-74
2023/02/10 11:40:19;;;;;;;10.50;5.00;;;5.60;88.00;;;;;;5094465;28;20124;-74
2023/02/10 11:42:49;;;;;;;12.27;4.57;;;5.60;87.80;;;;;;5058916;28;20047;-74
2023/02/10 11:45:18;;;;;;;12.45;5.28;;;5.70;87.70;;;;;;5094201;28;20501;-74
2023/02/10 11:47:45;;;;;;;10.05;4.43;;;5.80;87.60;;;;;;5076158;28;20043;-73
2023/02/10 11:50:28;;;;;;;11.27;4.82;;;5.90;87.50;;;;;;5075700;28;20092;-74
2023/02/10 11:52:54;;;;;;;12.73;5.25;;;6.10;87.50;;;;;;5076077;28;20071;-73
2023/02/10 11:55:23;;;;;;;10.85;4.95;;;6.10;87.10;;;;;;5058828;28;20082;-74
2023/02/10 12:00:57;;;;;;;9.38;4.40;;;6.30;87.00;;;;;;5092746;28;20040;-74
2023/02/10 12:03:53;;;;;;;9.43;4.45;;;6.40;86.90;;;;;;5075684;28;20047;-74
2023/02/10 12:06:37;;;;;;;12.13;4.80;;;6.60;86.80;;;;;;5078519;28;20037;-74
2023/02/10 12:09:27;;;;;;;10.07;4.90;;;6.70;86.50;;;;;;5093467;28;20047;-74
2023/02/10 12:12:18;;;;;;;11.48;5.35;;;6.80;86.40;;;;;;5077932;28;20036;-73
2023/02/10 12:14:59;;;;;;;13.68;5.20;;;6.90;86.30;;;;;;5061014;28;20044;-73
2023/02/10 12:17:37;;;;;;;13.27;6.20;;;7.00;86.10;;;;;;5075570;28;20032;-73
2023/02/10 12:20:33;;;;;;;12.38;4.88;;;7.10;86.00;;;;;;5075200;28;20774;-74
2023/02/10 12:23:28;;;;;;;10.85;5.43;;;7.20;85.90;;;;;;5075032;28;20047;-73
2023/02/10 12:26:18;;;;;;;9.55;4.75;;;7.30;85.70;;;;;;5077519;28;20048;-73
2023/02/10 12:29:01;;;;;;;9.50;4.38;;;7.40;85.50;;;;;;5093398;28;20044;-73
2023/02/10 12:31:49;;;;;;;11.60;4.85;;;7.50;85.30;;;;;;5093162;28;20555;-73
2023/02/10 12:34:39;;;;;;;8.52;5.03;;;7.60;85.20;;;;;;5074842;28;20044;-74
2023/02/10 12:37:25;;;;;;;10.68;4.47;;;7.70;85.10;;;;;;5074060;28;20044;-73
2023/02/10 12:40:16;;;;;;;10.93;5.05;;;7.80;84.90;;;;;;5074851;28;20071;-73
2023/02/10 12:43:09;;;;;;;13.65;5.30;;;7.80;84.70;;;;;;5092872;28;20067;-74
2023/02/10 12:45:49;;;;;;;11.18;5.28;;;7.90;84.70;;;;;;5061870;28;20055;-74
2023/02/10 12:48:49;;;;;;;10.45;4.90;;;8.00;84.50;;;;;;5058784;28;20097;-74
2023/02/10 12:51:33;;;;;;;9.27;4.85;;;8.00;84.30;;;;;;5092610;28;20051;-73
2023/02/10 12:54:07;;;;;;;9.95;4.75;;;8.10;84.10;;;;;;5057918;28;20063;-74
2023/02/10 12:56:44;;;;;;;10.52;4.63;;;8.20;84.00;;;;;;5057993;28;20078;-73
2023/02/10 12:59:20;;;;;;;9.73;4.72;;;8.30;84.00;;;;;;5092989;28;20043;-74
2023/02/10 13:02:04;;;;;;;10.07;4.25;;;8.40;83.90;;;;;;5074448;28;20040;-75
2023/02/10 13:04:32;;;;;;;8.13;3.85;;;8.50;83.70;;;;;;5074330;28;20138;-74
2023/02/10 13:07:04;;;;;;;10.50;4.68;;;8.60;83.50;;;;;;5057870;28;20032;-74
2023/02/10 13:09:42;;;;;;;8.55;4.05;;;8.70;83.20;;;;;;5047883;28;20111;-74
2023/02/10 13:12:24;;;;;;;11.15;4.55;;;8.80;83.10;;;;;;5092326;28;20086;-74
2023/02/10 13:14:59;;;;;;;10.95;4.70;;;8.80;82.90;;;;;;5074344;28;20123;-73
2023/02/10 13:17:26;;;;;;;8.50;4.50;;;8.80;82.70;;;;;;5074366;28;20508;-74
2023/02/10 13:20:00;;;;;;;10.90;4.53;;;8.80;82.50;;;;;;5092910;28;20043;-74
2023/02/10 13:22:46;;;;;;;11.23;5.03;;;8.90;82.70;;;;;;5075054;28;20028;-74
2023/02/10 13:25:19;;;;;;;9.90;4.35;;;8.90;82.50;;;;;;5074789;28;20040;-74
2023/02/10 13:28:24;;;;;;;11.13;5.32;;;8.90;82.40;;;;;;5058698;28;20371;-73
2023/02/10 13:31:10;;;;;;;11.80;5.55;;;8.90;82.20;;;;;;5041190;28;20039;-75
2023/02/10 13:34:02;;;;;;;10.07;5.55;;;8.80;82.10;;;;;;5070452;28;20135;-75